createdAt,value
2018-03-04T00:01:49.850Z,1.00
2018-03-04T00:04:19.061Z,0.90
2018-03-04T00:06:47.465Z,0.90
2018-03-04T00:09:15.848Z,1.00
2018-03-04T00:11:44.272Z,1.00
2018-03-04T00:14:13.433Z,1.20
2018-03-04T00:16:41.868Z,1.20
2018-03-04T00:19:10.253Z,1.20
2018-03-04T00:21:38.689Z,1.20
2018-03-04T00:24:07.078Z,1.10
2018-03-04T00:26:36.247Z,1.10
2018-03-04T00:29:04.709Z,1.10
2018-03-04T00:31:33.094Z,1.10
2018-03-04T00:34:01.494Z,1.20
2018-03-04T00:36:30.021Z,1.10
2018-03-04T00:38:58.404Z,1.00
2018-03-04T00:41:26.807Z,1.00
2018-03-04T00:43:55.225Z,1.00
2018-03-04T00:46:24.384Z,1.00
2018-03-04T00:48:52.780Z,1.00
2018-03-04T00:51:21.220Z,1.00
2018-03-04T00:53:49.607Z,0.90
2018-03-04T00:56:18.019Z,0.90
2018-03-04T00:58:46.466Z,0.90
2018-03-04T01:01:14.862Z,1.00
2018-03-04T01:03:43.266Z,0.90
2018-03-04T01:06:12.601Z,1.10
2018-03-04T01:08:40.993Z,1.10
2018-03-04T01:11:09.235Z,1.00
2018-03-04T01:13:37.652Z,1.00
2018-03-04T01:16:06.078Z,1.00
2018-03-04T01:18:35.241Z,0.80
2018-03-04T01:21:03.656Z,0.80
2018-03-04T01:23:32.816Z,0.90
2018-03-04T01:26:01.217Z,0.90
2018-03-04T01:28:30.237Z,0.70
2018-03-04T01:30:58.642Z,0.70
2018-03-04T01:33:27.025Z,0.70
2018-03-04T01:35:56.191Z,0.70
2018-03-04T01:38:24.883Z,0.60
2018-03-04T01:40:53.280Z,0.60
2018-03-04T01:43:21.548Z,0.60
2018-03-04T01:45:49.942Z,0.60
2018-03-04T01:48:18.345Z,0.60
2018-03-04T01:50:47.537Z,0.60
2018-03-04T01:53:15.967Z,0.60
2018-03-04T01:55:44.357Z,0.60
2018-03-04T01:58:12.753Z,0.60
2018-03-04T02:00:41.178Z,0.60
2018-03-04T02:03:09.581Z,0.70
2018-03-04T02:05:37.981Z,0.70
2018-03-04T02:08:06.417Z,0.70
2018-03-04T02:10:34.816Z,0.70
2018-03-04T02:13:03.195Z,0.70
2018-03-04T02:15:31.612Z,0.70
2018-03-04T02:18:00.008Z,0.70
2018-03-04T02:20:29.196Z,0.90
2018-03-04T02:22:58.347Z,0.90
2018-03-04T02:25:27.578Z,0.90
2018-03-04T02:27:56.798Z,1.00
2018-03-04T02:30:26.976Z,0.90
2018-03-04T02:32:56.147Z,0.80
2018-03-04T02:35:25.600Z,0.90
2018-03-04T02:37:54.833Z,0.80
2018-03-04T02:40:23.242Z,0.70
2018-03-04T02:42:52.736Z,0.80
2018-03-04T02:45:21.137Z,0.80
2018-03-04T02:47:49.539Z,0.80
2018-03-04T02:50:18.751Z,0.80
2018-03-04T02:52:48.905Z,1.00
2018-03-04T02:55:17.306Z,1.00
2018-03-04T02:57:45.760Z,1.30
2018-03-04T03:00:13.845Z,1.10
2018-03-04T03:02:42.470Z,1.00
2018-03-04T03:05:11.767Z,0.80
2018-03-04T03:07:41.884Z,0.80
2018-03-04T03:10:11.032Z,0.90
2018-03-04T03:12:39.500Z,0.80
2018-03-04T03:15:07.918Z,1.00
2018-03-04T03:17:36.361Z,1.00
2018-03-04T03:20:04.754Z,0.90
2018-03-04T03:22:33.144Z,0.90
2018-03-04T03:25:02.350Z,0.80
2018-03-04T03:27:30.742Z,0.80
2018-03-04T03:29:59.137Z,0.80
2018-03-04T03:32:28.358Z,0.80
2018-03-04T03:34:56.762Z,0.70
2018-03-04T03:37:25.151Z,0.90
2018-03-04T03:39:53.573Z,0.70
2018-03-04T03:42:22.736Z,0.60
2018-03-04T03:44:51.137Z,0.60
2018-03-04T03:47:20.307Z,0.50
2018-03-04T03:49:48.704Z,0.50
2018-03-04T03:52:17.901Z,0.90
2018-03-04T03:54:47.067Z,0.90
2018-03-04T03:57:16.489Z,0.90
2018-03-04T03:59:44.915Z,1.10
2018-03-04T04:02:13.305Z,1.10
2018-03-04T04:04:41.753Z,0.90
2018-03-04T04:07:10.136Z,0.90
2018-03-04T04:09:38.525Z,0.80
2018-03-04T04:12:07.777Z,0.70
2018-03-04T04:14:36.206Z,0.60
2018-03-04T04:17:04.602Z,0.80
2018-03-04T04:19:34.968Z,0.80
2018-03-04T04:22:04.133Z,0.80
2018-03-04T04:24:32.526Z,0.80
2018-03-04T04:27:00.958Z,0.70
2018-03-04T04:29:29.401Z,0.70
2018-03-04T04:31:58.549Z,0.80
2018-03-04T04:34:26.939Z,0.80
2018-03-04T04:36:55.367Z,1.00
2018-03-04T04:39:23.766Z,0.90
2018-03-04T04:41:52.179Z,0.80
2018-03-04T04:44:20.640Z,0.60
2018-03-04T04:46:49.936Z,0.50
2018-03-04T04:49:18.343Z,0.50
2018-03-04T04:51:47.038Z,0.60
2018-03-04T04:54:16.813Z,0.50
2018-03-04T04:56:45.284Z,0.50
2018-03-04T04:59:13.667Z,0.50
2018-03-04T05:01:42.056Z,0.50
2018-03-04T05:04:10.487Z,0.60
2018-03-04T05:06:38.903Z,0.60
2018-03-04T05:09:07.291Z,0.50
2018-03-04T05:11:35.725Z,0.70
2018-03-04T05:14:04.120Z,0.70
2018-03-04T05:16:32.522Z,0.60
2018-03-04T05:19:00.955Z,0.50
2018-03-04T05:21:29.343Z,0.50
2018-03-04T05:23:57.731Z,0.60
2018-03-04T05:26:26.167Z,0.60
2018-03-04T05:28:54.757Z,0.50
2018-03-04T05:31:23.930Z,0.60
2018-03-04T05:33:52.365Z,0.60
2018-03-04T05:36:20.771Z,0.70
2018-03-04T05:38:49.173Z,0.70
2018-03-04T05:41:17.603Z,0.50
2018-03-04T05:43:46.007Z,0.40
2018-03-04T05:46:14.407Z,0.40
2018-03-04T05:48:42.834Z,0.30
2018-03-04T05:51:11.045Z,0.30
2018-03-04T05:53:41.239Z,0.30
2018-03-04T05:56:09.668Z,0.40
2018-03-04T05:58:38.829Z,0.40
2018-03-04T06:01:07.280Z,0.40
2018-03-04T06:03:36.340Z,0.40
2018-03-04T06:06:05.879Z,0.40
2018-03-04T06:08:34.278Z,0.40
2018-03-04T06:11:02.675Z,0.30
2018-03-04T06:13:31.121Z,0.50
2018-03-04T06:15:59.519Z,0.50
2018-03-04T06:18:27.908Z,0.60
2018-03-04T06:20:56.346Z,0.50
2018-03-04T06:23:24.741Z,0.40
2018-03-04T06:25:53.145Z,0.60
2018-03-04T06:28:21.557Z,0.80
2018-03-04T06:30:50.866Z,0.70
2018-03-04T06:33:19.279Z,0.70
2018-03-04T06:35:47.673Z,0.80
2018-03-04T06:38:16.079Z,0.70
2018-03-04T06:40:45.267Z,0.70
2018-03-04T06:43:14.424Z,0.80
2018-03-04T06:45:43.013Z,0.70
2018-03-04T06:48:11.441Z,0.70
2018-03-04T06:50:40.633Z,0.70
2018-03-04T06:53:09.788Z,0.60
2018-03-04T06:55:38.946Z,0.60
2018-03-04T06:58:07.545Z,0.50
2018-03-04T07:00:36.521Z,0.70
2018-03-04T07:03:04.912Z,0.60
2018-03-04T07:05:33.349Z,0.80
2018-03-04T07:08:02.508Z,0.60
2018-03-04T07:10:30.922Z,0.60
2018-03-04T07:13:00.136Z,0.80
2018-03-04T07:15:28.534Z,0.80
2018-03-04T07:17:56.925Z,1.00
2018-03-04T07:20:25.337Z,0.90
2018-03-04T07:22:53.745Z,1.00
2018-03-04T07:25:22.137Z,0.90
2018-03-04T07:27:50.529Z,0.90
2018-03-04T07:30:18.952Z,0.80
2018-03-04T07:32:48.121Z,0.90
2018-03-04T07:35:16.525Z,0.90
2018-03-04T07:37:45.745Z,0.90
2018-03-04T07:40:14.140Z,0.90
2018-03-04T07:42:42.531Z,1.10
2018-03-04T07:45:10.942Z,1.00
2018-03-04T07:47:39.323Z,1.00
2018-03-04T07:50:07.918Z,1.10
2018-03-04T07:52:38.038Z,1.40
2018-03-04T07:55:07.215Z,1.50
2018-03-04T07:57:35.651Z,1.50
2018-03-04T08:00:03.764Z,1.60
2018-03-04T08:02:32.161Z,1.70
2018-03-04T08:05:00.778Z,1.70
2018-03-04T08:07:29.336Z,1.70
2018-03-04T08:09:57.737Z,1.80
2018-03-04T08:12:26.159Z,1.80
2018-03-04T08:14:54.536Z,1.90
2018-03-04T08:17:22.933Z,2.00
2018-03-04T08:19:52.126Z,2.40
2018-03-04T08:22:21.273Z,2.40
2018-03-04T08:25:00.981Z,2.40
2018-03-04T08:27:40.668Z,2.40
2018-03-04T08:30:09.107Z,2.40
2018-03-04T08:32:38.342Z,2.50
2018-03-04T08:35:08.213Z,2.80
2018-03-04T08:37:37.218Z,2.70
2018-03-04T08:40:05.638Z,2.90
2018-03-04T08:42:34.033Z,3.00
2018-03-04T08:45:02.477Z,3.10
2018-03-04T08:47:30.933Z,3.20
2018-03-04T08:49:59.332Z,3.20
2018-03-04T08:52:27.710Z,3.30
2018-03-04T08:54:56.902Z,3.50
2018-03-04T08:57:25.539Z,3.40
2018-03-04T08:59:54.696Z,3.50
2018-03-04T09:02:23.083Z,3.50
2018-03-04T09:04:51.518Z,3.60
2018-03-04T09:07:19.988Z,3.80
2018-03-04T09:09:48.178Z,3.80
2018-03-04T09:12:16.624Z,3.80
2018-03-04T09:14:45.824Z,3.90
2018-03-04T09:17:14.252Z,3.80
2018-03-04T09:19:42.655Z,3.90
2018-03-04T09:22:11.944Z,3.90
2018-03-04T09:24:40.993Z,3.90
2018-03-04T09:27:09.606Z,4.00
2018-03-04T09:29:38.770Z,4.00
2018-03-04T09:32:07.220Z,4.00
2018-03-04T09:34:36.360Z,4.20
2018-03-04T09:37:04.780Z,4.10
2018-03-04T09:39:33.962Z,4.30
2018-03-04T09:42:02.373Z,4.30
2018-03-04T09:44:30.798Z,4.40
2018-03-04T09:46:59.191Z,4.40
2018-03-04T09:49:27.595Z,4.40
2018-03-04T09:51:56.777Z,4.40
2018-03-04T09:54:25.176Z,4.40
2018-03-04T09:56:53.782Z,4.40
2018-03-04T09:59:22.177Z,4.50
2018-03-04T10:01:50.567Z,4.50
2018-03-04T10:04:19.012Z,4.60
2018-03-04T10:06:47.443Z,4.60
2018-03-04T10:09:15.990Z,4.70
2018-03-04T10:11:44.414Z,4.70
2018-03-04T10:14:13.568Z,4.80
2018-03-04T10:16:42.329Z,4.80
2018-03-04T10:19:10.758Z,4.90
2018-03-04T10:21:39.148Z,5.00
2018-03-04T10:24:08.324Z,5.00
2018-03-04T10:26:36.732Z,5.00
2018-03-04T10:29:05.937Z,5.20
2018-03-04T10:31:34.318Z,5.20
2018-03-04T10:34:02.720Z,5.20
2018-03-04T10:36:31.167Z,5.30
2018-03-04T10:39:00.334Z,5.30
2018-03-04T10:41:28.730Z,5.30
2018-03-04T10:43:57.918Z,5.30
2018-03-04T10:46:27.081Z,5.40
2018-03-04T10:48:55.488Z,5.40
2018-03-04T10:51:24.698Z,5.40
2018-03-04T10:53:53.848Z,5.50
2018-03-04T10:56:22.243Z,5.40
2018-03-04T10:58:50.888Z,5.40
2018-03-04T11:01:19.998Z,5.50
2018-03-04T11:03:48.210Z,5.60
2018-03-04T11:06:16.909Z,5.70
2018-03-04T11:08:45.883Z,5.70
2018-03-04T11:11:14.278Z,5.70
2018-03-04T11:13:43.483Z,5.70
2018-03-04T11:16:11.872Z,5.70
2018-03-04T11:18:41.086Z,5.70
2018-03-04T11:21:09.576Z,5.80
2018-03-04T11:23:38.742Z,5.80
2018-03-04T11:26:07.132Z,5.80
2018-03-04T11:28:35.590Z,5.80
2018-03-04T11:31:04.124Z,5.70
2018-03-04T11:33:32.554Z,5.70
2018-03-04T11:36:00.944Z,5.70
2018-03-04T11:38:29.385Z,5.60
2018-03-04T11:40:58.554Z,5.80
2018-03-04T11:43:26.933Z,5.70
2018-03-04T11:45:55.354Z,5.80
2018-03-04T11:48:23.780Z,5.80
2018-03-04T11:50:52.180Z,5.70
2018-03-04T11:53:20.617Z,5.70
2018-03-04T11:55:49.045Z,5.60
2018-03-04T11:58:17.604Z,5.40
2018-03-04T12:00:46.591Z,5.50
2018-03-04T12:03:14.996Z,5.60
2018-03-04T12:05:44.147Z,5.60
2018-03-04T12:08:12.581Z,5.60
2018-03-04T12:10:42.100Z,5.60
2018-03-04T12:13:10.953Z,5.50
2018-03-04T12:15:40.084Z,5.60
2018-03-04T12:18:08.492Z,5.60
2018-03-04T12:20:36.918Z,5.50
2018-03-04T12:23:06.077Z,5.50
2018-03-04T12:25:34.479Z,5.50
2018-03-04T12:28:02.917Z,5.50
2018-03-04T12:30:31.319Z,5.60
2018-03-04T12:32:59.726Z,5.60
2018-03-04T12:35:28.741Z,5.60
2018-03-04T12:37:57.124Z,5.60
2018-03-04T12:40:25.512Z,5.70
2018-03-04T12:42:53.934Z,5.70
2018-03-04T12:45:22.326Z,5.70
2018-03-04T12:47:51.518Z,5.80
2018-03-04T12:50:20.681Z,5.80
2018-03-04T12:52:49.077Z,5.70
2018-03-04T12:55:17.528Z,5.90
2018-03-04T12:57:45.925Z,5.90
2018-03-04T13:00:14.328Z,6.00
2018-03-04T13:02:43.579Z,6.10
2018-03-04T13:05:12.976Z,6.10
2018-03-04T13:07:41.783Z,6.10
2018-03-04T13:10:11.349Z,6.10
2018-03-04T13:12:39.812Z,6.10
2018-03-04T13:15:07.538Z,6.00
2018-03-04T13:17:35.636Z,6.00
2018-03-04T13:20:04.800Z,6.10
2018-03-04T13:22:33.245Z,6.10
2018-03-04T13:25:01.645Z,6.10
2018-03-04T13:27:30.041Z,6.20
2018-03-04T13:29:58.480Z,6.20
2018-03-04T13:32:26.873Z,6.30
2018-03-04T13:34:55.268Z,6.30
2018-03-04T13:37:23.685Z,6.40
2018-03-04T13:39:52.858Z,6.60
2018-03-04T13:42:21.299Z,6.60
2018-03-04T13:44:50.451Z,6.60
2018-03-04T13:47:19.609Z,6.60
2018-03-04T13:49:48.029Z,6.60
2018-03-04T13:52:17.230Z,6.40
2018-03-04T13:54:45.668Z,6.40
2018-03-04T13:57:14.051Z,6.30
2018-03-04T13:59:43.357Z,6.30
2018-03-04T14:02:12.774Z,6.40
2018-03-04T14:04:41.937Z,6.50
2018-03-04T14:07:11.175Z,6.40
2018-03-04T14:09:39.759Z,6.50
2018-03-04T14:12:08.175Z,6.50
2018-03-04T14:14:36.596Z,6.60
2018-03-04T14:17:05.743Z,6.50
2018-03-04T14:19:34.135Z,6.60
2018-03-04T14:22:02.541Z,6.50
2018-03-04T14:24:31.705Z,6.40
2018-03-04T14:27:00.125Z,6.30
2018-03-04T14:29:29.279Z,6.20
2018-03-04T14:31:59.414Z,6.20
2018-03-04T14:34:27.803Z,6.20
2018-03-04T14:36:56.309Z,6.20
2018-03-04T14:39:24.840Z,6.20
2018-03-04T14:41:53.237Z,6.20
2018-03-04T14:44:21.639Z,6.20
2018-03-04T14:46:50.800Z,6.20
2018-03-04T14:49:19.213Z,6.20
2018-03-04T14:51:48.392Z,6.20
2018-03-04T14:54:17.574Z,6.20
2018-03-04T14:56:45.980Z,6.20
2018-03-04T14:59:15.174Z,6.30
2018-03-04T15:01:43.733Z,6.30
2018-03-04T15:04:12.138Z,6.40
2018-03-04T15:06:43.214Z,6.60
2018-03-04T15:09:11.291Z,6.60
2018-03-04T15:11:39.747Z,6.70
2018-03-04T15:14:08.172Z,6.70
2018-03-04T15:16:36.712Z,6.70
2018-03-04T15:19:05.095Z,6.70
2018-03-04T15:21:33.478Z,6.80
2018-03-04T15:24:01.697Z,6.80
2018-03-04T15:26:30.894Z,6.80
2018-03-04T15:29:00.053Z,6.70
2018-03-04T15:31:28.444Z,6.60
2018-03-04T15:33:56.848Z,6.60
2018-03-04T15:36:25.998Z,6.50
2018-03-04T15:38:55.163Z,6.40
2018-03-04T15:41:23.556Z,6.30
2018-03-04T15:43:51.966Z,6.30
2018-03-04T15:46:20.364Z,6.30
2018-03-04T15:48:48.769Z,6.20
2018-03-04T15:51:17.167Z,6.20
2018-03-04T15:53:45.584Z,6.10
2018-03-04T15:56:14.003Z,6.00
2018-03-04T15:58:43.402Z,6.00
2018-03-04T16:01:12.779Z,5.90
2018-03-04T16:03:42.150Z,5.90
2018-03-04T16:06:10.583Z,5.80
2018-03-04T16:08:39.032Z,5.80
2018-03-04T16:11:07.580Z,5.70
2018-03-04T16:13:35.996Z,5.70
2018-03-04T16:16:05.173Z,5.60
2018-03-04T16:18:33.582Z,5.60
2018-03-04T16:21:02.769Z,5.60
2018-03-04T16:23:31.928Z,5.60
2018-03-04T16:26:00.144Z,5.60
2018-03-04T16:28:29.323Z,5.50
2018-03-04T16:30:57.722Z,5.50
2018-03-04T16:33:26.905Z,5.40
2018-03-04T16:35:56.065Z,5.40
2018-03-04T16:38:24.467Z,5.40
2018-03-04T16:40:52.860Z,5.40
2018-03-04T16:43:21.854Z,5.30
2018-03-04T16:45:51.092Z,5.30
2018-03-04T16:48:19.492Z,5.30
2018-03-04T16:50:48.604Z,5.30
2018-03-04T16:53:17.031Z,5.20
2018-03-04T16:55:45.442Z,5.20
2018-03-04T16:58:13.836Z,5.20
2018-03-04T17:00:42.818Z,5.20
2018-03-04T17:03:11.973Z,5.20
2018-03-04T17:05:41.233Z,5.10
2018-03-04T17:08:09.966Z,5.10
2018-03-04T17:10:38.396Z,5.10
2018-03-04T17:13:07.742Z,5.00
2018-03-04T17:15:36.153Z,5.00
2018-03-04T17:18:04.236Z,4.90
2018-03-04T17:20:32.619Z,4.90
2018-03-04T17:23:01.977Z,4.90
2018-03-04T17:25:30.377Z,4.90
2018-03-04T17:27:58.774Z,4.90
2018-03-04T17:30:27.187Z,4.80
2018-03-04T17:32:56.665Z,4.80
2018-03-04T17:35:25.850Z,4.80
2018-03-04T17:37:54.254Z,4.70
2018-03-04T17:40:23.433Z,4.70
2018-03-04T17:42:51.829Z,4.70
2018-03-04T17:45:21.008Z,4.70
2018-03-04T17:47:49.580Z,4.60
2018-03-04T17:50:18.001Z,4.60
2018-03-04T17:52:47.482Z,4.60
2018-03-04T17:55:16.628Z,4.50
2018-03-04T17:57:45.050Z,4.50
2018-03-04T18:00:13.625Z,4.50
2018-03-04T18:02:42.824Z,4.40
2018-03-04T18:05:12.542Z,4.40
2018-03-04T18:07:42.548Z,4.40
2018-03-04T18:10:12.537Z,4.40
2018-03-04T18:12:40.934Z,4.40
2018-03-04T18:15:09.356Z,4.40
2018-03-04T18:17:37.758Z,4.30
2018-03-04T18:20:06.201Z,4.30
2018-03-04T18:22:34.599Z,4.20
2018-03-04T18:25:03.038Z,4.20
2018-03-04T18:27:32.201Z,4.10
2018-03-04T18:30:00.606Z,4.10
2018-03-04T18:32:29.760Z,4.00
2018-03-04T18:34:58.173Z,4.00
2018-03-04T18:37:26.581Z,4.00
2018-03-04T18:39:55.019Z,4.00
2018-03-04T18:42:23.416Z,4.00
2018-03-04T18:44:52.567Z,3.90
2018-03-04T18:47:20.983Z,3.90
2018-03-04T18:49:49.477Z,3.90
2018-03-04T18:52:18.633Z,3.90
2018-03-04T18:54:47.057Z,3.80
2018-03-04T18:57:16.230Z,3.80
2018-03-04T18:59:44.636Z,3.80
2018-03-04T19:02:13.048Z,3.80
2018-03-04T19:04:41.474Z,3.80
2018-03-04T19:07:10.675Z,3.80
2018-03-04T19:09:39.893Z,3.80
2018-03-04T19:12:08.293Z,3.80
2018-03-04T19:14:36.690Z,3.80
2018-03-04T19:17:05.104Z,3.80
2018-03-04T19:19:33.502Z,3.70
2018-03-04T19:22:02.745Z,3.70
2018-03-04T19:24:32.050Z,3.70
2018-03-04T19:27:00.453Z,3.70
2018-03-04T19:29:28.851Z,3.70
2018-03-04T19:31:57.086Z,3.80
2018-03-04T19:34:26.247Z,3.80
2018-03-04T19:36:54.653Z,3.80
2018-03-04T19:39:23.825Z,3.80
2018-03-04T19:41:52.240Z,3.80
2018-03-04T19:44:21.420Z,3.90
2018-03-04T19:46:50.578Z,3.90
2018-03-04T19:49:18.992Z,3.80
2018-03-04T19:51:47.383Z,3.90
2018-03-04T19:54:16.543Z,3.80
2018-03-04T19:56:44.954Z,3.80
2018-03-04T19:59:14.120Z,3.80
2018-03-04T20:01:43.256Z,3.80
2018-03-04T20:04:13.076Z,3.90
2018-03-04T20:06:41.504Z,3.80
2018-03-04T20:09:10.007Z,3.90
2018-03-04T20:11:39.181Z,4.00
2018-03-04T20:14:07.590Z,3.90
2018-03-04T20:16:36.783Z,4.00
2018-03-04T20:19:05.940Z,4.10
2018-03-04T20:21:34.349Z,4.00
2018-03-04T20:24:02.741Z,4.10
2018-03-04T20:26:31.981Z,4.10
2018-03-04T20:29:00.518Z,4.10
2018-03-04T20:31:29.681Z,4.10
2018-03-04T20:33:58.091Z,4.10
2018-03-04T20:36:27.244Z,4.20
2018-03-04T20:38:55.662Z,4.10
2018-03-04T20:41:24.819Z,4.20
2018-03-04T20:43:53.233Z,4.20
2018-03-04T20:46:21.623Z,4.20
2018-03-04T20:48:50.780Z,4.20
2018-03-04T20:51:19.181Z,4.20
2018-03-04T20:53:47.372Z,4.30
2018-03-04T20:56:16.566Z,4.30
2018-03-04T20:58:45.719Z,4.30
2018-03-04T21:01:14.116Z,4.30
2018-03-04T21:03:43.339Z,4.30
2018-03-04T21:06:13.169Z,4.40
2018-03-04T21:08:41.581Z,4.30
2018-03-04T21:11:10.042Z,4.40
2018-03-04T21:13:38.448Z,4.30
2018-03-04T21:16:06.841Z,4.40
2018-03-04T21:18:35.250Z,4.30
2018-03-04T21:21:04.426Z,4.30
2018-03-04T21:23:32.814Z,4.30
2018-03-04T21:26:01.982Z,4.30
2018-03-04T21:28:30.402Z,4.30
2018-03-04T21:30:59.558Z,4.20
2018-03-04T21:33:27.960Z,4.20
2018-03-04T21:35:57.141Z,4.10
2018-03-04T21:38:25.534Z,4.10
2018-03-04T21:40:54.707Z,4.10
2018-03-04T21:43:23.307Z,4.10
2018-03-04T21:45:51.713Z,4.00
2018-03-04T21:48:20.105Z,4.00
2018-03-04T21:50:48.521Z,4.10
2018-03-04T21:53:16.918Z,4.00
2018-03-04T21:55:45.327Z,4.00
2018-03-04T21:58:14.660Z,3.90
2018-03-04T22:00:43.046Z,3.90
2018-03-04T22:03:12.135Z,4.00
2018-03-04T22:05:41.653Z,4.10
2018-03-04T22:08:10.100Z,4.10
2018-03-04T22:10:38.504Z,4.00
2018-03-04T22:13:06.890Z,4.10
2018-03-04T22:15:35.297Z,4.10
2018-03-04T22:18:04.461Z,3.90
2018-03-04T22:20:32.859Z,3.90
2018-03-04T22:23:01.252Z,3.90
2018-03-04T22:25:30.464Z,4.10
2018-03-04T22:27:58.865Z,4.10
2018-03-04T22:30:27.277Z,4.10
2018-03-04T22:32:55.666Z,3.80
2018-03-04T22:35:24.838Z,3.50
2018-03-04T22:37:53.249Z,3.50
2018-03-04T22:40:22.421Z,3.40
2018-03-04T22:42:50.837Z,3.40
2018-03-04T22:45:20.038Z,3.40
2018-03-04T22:47:48.611Z,3.40
2018-03-04T22:50:17.776Z,3.40
2018-03-04T22:52:46.178Z,3.40
2018-03-04T22:55:15.352Z,3.40
2018-03-04T22:57:43.760Z,3.40
2018-03-04T23:00:12.933Z,3.40
2018-03-04T23:02:44.844Z,3.40
2018-03-04T23:05:13.251Z,3.50
2018-03-04T23:07:41.647Z,3.40
2018-03-04T23:10:10.127Z,3.40
2018-03-04T23:12:38.507Z,3.50
2018-03-04T23:15:06.901Z,3.40
2018-03-04T23:17:36.075Z,3.40
2018-03-04T23:20:04.511Z,3.40
2018-03-04T23:22:32.933Z,3.40
2018-03-04T23:25:01.345Z,3.40
2018-03-04T23:27:30.688Z,3.40
2018-03-04T23:29:59.092Z,3.40
2018-03-04T23:32:27.494Z,3.60
2018-03-04T23:34:56.669Z,3.40
2018-03-04T23:37:25.113Z,3.40
2018-03-04T23:39:53.501Z,3.30
2018-03-04T23:42:21.890Z,3.30
2018-03-04T23:44:50.319Z,3.30
2018-03-04T23:47:18.727Z,3.30
2018-03-04T23:49:47.130Z,3.40
2018-03-04T23:52:15.547Z,3.40
2018-03-04T23:54:43.948Z,3.40
2018-03-04T23:57:12.368Z,3.30
2018-03-04T23:59:41.014Z,3.30
